Time;durP1;ratioP1;P1;durP2;ratioP2;P2;SDS_P1;SDS_P2;PMS_P1;PMS_P2;Temp;Humidity;BMP_temperature;BMP_pressure;BME280_temperature;BME280_humidity;BME280_pressure;Samples;Min_cycle;Max_cycle;Signal;HPM_P1;HPM_P2
2021/12/22 00:02:18;;;;;;;23.20;12.15;;;0.00;99.90;;;;;;5010941;28;20484;-85
2021/12/22 00:04:45;;;;;;;23.63;12.43;;;-0.70;99.90;;;;;;4968063;28;20516;-84
2021/12/22 00:07:11;;;;;;;24.58;12.05;;;-0.60;99.90;;;;;;4988262;28;20044;-85
2021/12/22 00:09:38;;;;;;;19.02;11.88;;;-0.70;99.90;;;;;;4993614;28;20177;-85
2021/12/22 00:12:04;;;;;;;19.95;12.05;;;-0.70;99.90;;;;;;4993841;28;20067;-85
2021/12/22 00:14:29;;;;;;;24.48;12.40;;;-0.70;99.90;;;;;;4988053;28;20163;-85
2021/12/22 00:16:55;;;;;;;20.33;11.95;;;0.00;99.90;;;;;;5014942;28;20112;-85
2021/12/22 00:19:21;;;;;;;22.80;12.40;;;-0.60;99.90;;;;;;4984852;28;20630;-85
2021/12/22 00:21:47;;;;;;;23.40;11.45;;;-0.80;99.90;;;;;;5006829;28;20514;-84
2021/12/22 00:24:13;;;;;;;20.77;11.63;;;-0.50;99.90;;;;;;4985561;28;20045;-85
2021/12/22 00:26:38;;;;;;;22.23;12.95;;;0.90;99.90;;;;;;4997915;28;20044;-85
2021/12/22 00:29:05;;;;;;;21.75;11.98;;;0.40;99.90;;;;;;4992126;28;20430;-84
2021/12/22 00:31:39;;;;;;;19.98;11.65;;;0.70;99.90;;;;;;5001234;28;20200;-85
2021/12/22 00:34:06;;;;;;;23.75;12.27;;;-0.80;99.90;;;;;;4980850;28;20041;-85
2021/12/22 00:36:32;;;;;;;21.75;12.18;;;-0.90;99.90;;;;;;4978096;28;20030;-85
2021/12/22 00:38:58;;;;;;;20.67;10.75;;;-0.70;99.90;;;;;;4962785;28;20044;-85
2021/12/22 00:41:24;;;;;;;21.13;12.52;;;-0.90;99.90;;;;;;4973697;28;20039;-85
2021/12/22 00:43:50;;;;;;;27.27;13.45;;;-0.90;99.90;;;;;;4962029;28;20041;-85
2021/12/22 00:46:16;;;;;;;21.08;11.57;;;-0.90;99.90;;;;;;4977411;28;20540;-85
2021/12/22 00:48:42;;;;;;;20.98;11.52;;;-0.80;99.90;;;;;;5011822;28;20033;-85
2021/12/22 00:51:08;;;;;;;22.15;11.95;;;-0.80;99.90;;;;;;4978088;28;20034;-85
2021/12/22 00:53:34;;;;;;;24.77;12.52;;;-0.90;99.90;;;;;;4993064;28;20357;-85
2021/12/22 00:56:02;;;;;;;19.77;12.10;;;0.20;99.90;;;;;;5019405;28;20087;-85
2021/12/22 00:58:28;;;;;;;22.13;11.85;;;-0.90;99.90;;;;;;5009886;28;20045;-85
2021/12/22 01:00:54;;;;;;;19.83;11.50;;;-0.90;99.90;;;;;;4982018;28;20390;-84
2021/12/22 01:03:21;;;;;;;22.42;11.80;;;-0.90;99.90;;;;;;4979687;28;20045;-84
2021/12/22 01:05:47;;;;;;;22.60;12.48;;;-0.90;99.90;;;;;;4961767;28;20049;-84
2021/12/22 01:08:13;;;;;;;20.45;12.00;;;-0.90;99.90;;;;;;4994070;28;20042;-85
2021/12/22 01:10:39;;;;;;;21.58;11.77;;;-0.90;99.90;;;;;;4979971;28;20041;-85
2021/12/22 01:13:06;;;;;;;25.30;12.93;;;-0.20;99.90;;;;;;4999837;28;20552;-85
2021/12/22 01:15:34;;;;;;;22.90;13.40;;;-1.00;99.90;;;;;;4984345;28;20477;-84
2021/12/22 01:18:10;;;;;;;21.35;12.43;;;-1.00;99.90;;;;;;4998625;28;20080;-84
2021/12/22 01:20:51;;;;;;;24.30;12.98;;;-1.00;99.90;;;;;;4996702;28;20034;-84
2021/12/22 01:23:19;;;;;;;19.63;11.80;;;0.40;99.90;;;;;;4997449;28;20045;-84
2021/12/22 01:25:47;;;;;;;23.05;12.20;;;-1.00;99.90;;;;;;4997418;28;20129;-85
2021/12/22 01:28:14;;;;;;;21.05;11.82;;;-0.90;99.90;;;;;;4997174;28;20041;-84
2021/12/22 01:30:44;;;;;;;22.48;12.20;;;-1.10;99.90;;;;;;4993642;28;20041;-84
2021/12/22 01:33:10;;;;;;;23.20;12.95;;;-1.10;99.90;;;;;;4981073;28;20037;-84
2021/12/22 01:35:37;;;;;;;22.70;12.30;;;0.50;99.90;;;;;;4980667;28;20156;-85
2021/12/22 01:38:04;;;;;;;22.95;12.15;;;-0.80;99.90;;;;;;4996423;28;20037;-85
2021/12/22 01:40:32;;;;;;;22.27;12.05;;;-1.10;99.90;;;;;;4983930;28;20132;-85
2021/12/22 01:42:58;;;;;;;23.23;12.82;;;-1.10;99.90;;;;;;4969922;28;20045;-84
2021/12/22 01:45:56;;;;;;;20.38;12.27;;;-1.10;99.90;;;;;;4981166;28;20064;-84
2021/12/22 01:51:42;;;;;;;25.45;12.95;;;-1.20;99.90;;;;;;5012931;28;20048;-84
2021/12/22 01:54:13;;;;;;;23.25;12.43;;;-1.30;99.90;;;;;;4991750;28;20033;-84
2021/12/22 01:56:41;;;;;;;22.35;11.90;;;-1.20;99.90;;;;;;5012063;28;20121;-85
2021/12/22 01:59:08;;;;;;;20.17;12.45;;;0.60;99.90;;;;;;4996087;28;20033;-84
2021/12/22 02:01:35;;;;;;;20.50;12.02;;;-1.40;99.90;;;;;;5002106;28;20053;-84
2021/12/22 02:04:03;;;;;;;22.70;12.52;;;-1.40;99.90;;;;;;5024233;28;20069;-84
2021/12/22 02:06:29;;;;;;;22.75;12.10;;;-1.00;99.90;;;;;;5028657;28;20514;-84
2021/12/22 02:08:55;;;;;;;22.95;12.05;;;1.40;99.90;;;;;;5030048;28;20120;-84
2021/12/22 02:11:22;;;;;;;18.85;11.65;;;-1.50;99.90;;;;;;4996221;28;20402;-84
2021/12/22 02:13:55;;;;;;;20.83;11.55;;;-0.40;99.90;;;;;;4996571;28;20040;-84
2021/12/22 02:16:26;;;;;;;18.63;11.27;;;-1.10;99.90;;;;;;4997578;28;20061;-84
2021/12/22 02:18:54;;;;;;;20.67;11.27;;;-1.30;99.90;;;;;;5010582;28;20033;-84
2021/12/22 02:21:22;;;;;;;20.40;10.52;;;-1.50;99.90;;;;;;4989764;28;20056;-84
2021/12/22 02:23:48;;;;;;;19.83;11.20;;;-1.10;99.90;;;;;;5012040;28;20041;-84
2021/12/22 02:26:20;;;;;;;20.40;11.27;;;-1.80;99.90;;;;;;4995858;28;20087;-84
2021/12/22 02:28:53;;;;;;;20.03;11.10;;;-1.50;99.90;;;;;;5012653;28;20041;-84
2021/12/22 02:31:20;;;;;;;;;;;-1.80;99.90;;;;;;5011548;28;20277;-84
2021/12/22 02:33:48;;;;;;;19.50;10.43;;;-1.90;99.90;;;;;;5012221;28;19932;-84
2021/12/22 02:38:48;;;;;;;22.60;11.20;;;-1.90;99.90;;;;;;5012909;28;20046;-84
2021/12/22 02:41:16;;;;;;;20.50;11.25;;;-2.00;99.90;;;;;;5028702;28;20045;-84
2021/12/22 02:43:46;;;;;;;21.08;11.68;;;-2.00;99.90;;;;;;4994621;28;20037;-84
2021/12/22 02:46:22;;;;;;;22.60;12.23;;;-1.10;99.90;;;;;;5012259;28;20037;-84
2021/12/22 02:48:48;;;;;;;21.63;11.88;;;-2.00;99.90;;;;;;5028642;28;20037;-84
2021/12/22 02:51:14;;;;;;;20.50;11.18;;;-2.10;99.90;;;;;;5012101;28;20473;-84
2021/12/22 02:53:49;;;;;;;21.60;12.07;;;-2.00;99.90;;;;;;5011511;28;20079;-84
2021/12/22 02:56:30;;;;;;;21.23;10.85;;;-2.00;99.90;;;;;;5011034;28;20084;-84
2021/12/22 02:59:10;;;;;;;19.08;10.40;;;-2.10;99.90;;;;;;5027603;28;20175;-84
2021/12/22 03:04:29;;;;;;;23.48;12.07;;;-0.90;99.90;;;;;;5027247;28;20080;-84
2021/12/22 03:07:00;;;;;;;21.35;11.63;;;-2.10;99.90;;;;;;5011768;28;20096;-84
2021/12/22 03:09:32;;;;;;;22.20;11.45;;;-2.20;99.90;;;;;;4993949;28;20584;-85
2021/12/22 03:12:01;;;;;;;20.63;11.60;;;-1.40;99.90;;;;;;5009997;28;20330;-85
2021/12/22 03:14:28;;;;;;;24.80;12.27;;;-2.20;99.90;;;;;;5009674;28;20041;-85
2021/12/22 03:16:54;;;;;;;21.77;11.90;;;-2.20;99.90;;;;;;5010695;28;20041;-85
2021/12/22 03:19:23;;;;;;;21.55;11.70;;;-0.70;99.90;;;;;;5028055;28;20502;-84
2021/12/22 03:21:51;;;;;;;21.17;12.35;;;-2.20;99.90;;;;;;5011071;28;20514;-85
2021/12/22 03:24:20;;;;;;;19.00;10.73;;;-1.20;99.90;;;;;;5011662;28;20037;-85
2021/12/22 03:26:46;;;;;;;21.75;11.07;;;-2.20;99.90;;;;;;5008668;28;20068;-84
2021/12/22 03:29:14;;;;;;;23.70;11.27;;;-1.90;99.90;;;;;;5010928;28;20072;-84
2021/12/22 03:31:41;;;;;;;20.05;11.43;;;-2.30;99.90;;;;;;5010856;28;20588;-85
2021/12/22 03:34:07;;;;;;;19.63;10.82;;;-2.30;99.90;;;;;;5010788;28;20029;-85
2021/12/22 03:36:33;;;;;;;19.33;11.93;;;-2.30;99.90;;;;;;4995712;28;20037;-85
2021/12/22 03:38:59;;;;;;;22.60;11.38;;;;;;;;;;5010973;28;20044;-85
2021/12/22 03:41:26;;;;;;;22.92;11.90;;;-2.30;99.90;;;;;;5012015;28;20505;-84
2021/12/22 03:43:52;;;;;;;23.85;11.85;;;-2.40;99.90;;;;;;4994977;28;20056;-85
2021/12/22 03:46:17;;;;;;;22.75;10.88;;;-0.70;99.90;;;;;;5011851;28;20095;-85
2021/12/22 03:48:43;;;;;;;24.30;11.95;;;-2.40;99.90;;;;;;5007372;28;20046;-85
2021/12/22 03:51:10;;;;;;;22.55;11.52;;;;;;;;;;5010758;28;20042;-84
2021/12/22 03:53:35;;;;;;;20.75;11.63;;;-2.40;99.90;;;;;;5011107;28;20052;-84
2021/12/22 03:56:02;;;;;;;22.95;11.25;;;-2.10;99.90;;;;;;5002113;28;20033;-85
2021/12/22 03:58:28;;;;;;;21.17;10.82;;;-2.40;99.90;;;;;;4975271;28;20037;-85
2021/12/22 04:00:55;;;;;;;22.10;11.73;;;-2.40;99.90;;;;;;4994315;28;20037;-85
2021/12/22 04:03:24;;;;;;;24.35;12.32;;;-2.40;99.90;;;;;;5009183;28;20057;-85
2021/12/22 04:05:50;;;;;;;23.90;11.65;;;-2.30;99.90;;;;;;4994665;28;20048;-84
2021/12/22 04:08:18;;;;;;;24.52;11.93;;;-2.40;99.90;;;;;;5011204;28;20050;-84
2021/12/22 04:10:49;;;;;;;21.65;11.48;;;-1.80;99.90;;;;;;5011300;28;20076;-84
2021/12/22 04:13:15;;;;;;;26.45;11.80;;;-2.60;99.90;;;;;;5001780;28;20046;-84
2021/12/22 04:15:42;;;;;;;21.60;10.63;;;-2.50;99.90;;;;;;5027413;28;20183;-84
2021/12/22 04:18:09;;;;;;;20.80;11.55;;;-2.60;99.90;;;;;;5010827;28;20389;-84
2021/12/22 04:20:35;;;;;;;22.90;11.27;;;-1.00;99.90;;;;;;4993566;28;20056;-84
2021/12/22 04:23:01;;;;;;;23.13;11.55;;;-2.50;99.90;;;;;;5027386;28;20053;-83
2021/12/22 04:25:28;;;;;;;22.52;11.82;;;-2.60;99.90;;;;;;5027000;28;20041;-84
2021/12/22 04:28:02;;;;;;;22.90;11.40;;;-2.50;99.90;;;;;;5008359;28;20162;-83
2021/12/22 04:30:28;;;;;;;24.23;11.82;;;-2.60;99.90;;;;;;5009750;28;20551;-84
2021/12/22 04:32:53;;;;;;;23.30;11.70;;;-2.50;99.90;;;;;;5010690;28;20038;-83
2021/12/22 04:35:19;;;;;;;21.77;11.13;;;-2.00;99.90;;;;;;5013570;28;20124;-84
2021/12/22 04:37:45;;;;;;;21.35;11.18;;;-2.50;99.90;;;;;;4989904;28;20034;-83
2021/12/22 04:40:11;;;;;;;22.13;11.55;;;-1.70;99.90;;;;;;5010678;28;20033;-83
2021/12/22 04:42:37;;;;;;;20.85;11.50;;;-2.70;99.90;;;;;;5042381;28;20045;-84
2021/12/22 04:45:06;;;;;;;19.20;10.82;;;-2.10;99.90;;;;;;4979414;28;20043;-84
2021/12/22 04:47:33;;;;;;;20.77;10.50;;;-2.80;99.90;;;;;;5002040;28;20056;-84
2021/12/22 04:50:00;;;;;;;23.00;11.20;;;-2.80;99.90;;;;;;4997606;28;20063;-84
2021/12/22 04:52:31;;;;;;;22.08;11.15;;;-2.80;99.90;;;;;;4998096;28;20049;-83
2021/12/22 04:55:03;;;;;;;22.33;10.85;;;-2.80;99.90;;;;;;5010464;28;20112;-83
2021/12/22 04:57:30;;;;;;;21.60;11.23;;;-2.20;99.90;;;;;;4977349;28;20042;-84
2021/12/22 04:59:56;;;;;;;22.60;11.07;;;-2.80;99.90;;;;;;5012018;28;20041;-84
2021/12/22 05:02:22;;;;;;;23.02;11.45;;;-2.80;99.90;;;;;;5013519;28;20053;-84
2021/12/22 05:04:47;;;;;;;21.50;11.13;;;-2.60;99.90;;;;;;4994530;28;20048;-84
2021/12/22 05:07:13;;;;;;;22.08;11.88;;;-2.10;99.90;;;;;;5007794;28;20038;-86
2021/12/22 05:09:39;;;;;;;21.20;11.13;;;-1.20;99.90;;;;;;5013803;28;20057;-84
2021/12/22 05:12:05;;;;;;;22.00;10.80;;;-2.20;99.90;;;;;;4996983;28;20064;-85
2021/12/22 05:14:31;;;;;;;21.48;11.30;;;-2.60;99.90;;;;;;5008495;28;20042;-84
2021/12/22 05:17:03;;;;;;;20.80;11.23;;;-2.80;99.90;;;;;;5013204;28;20057;-84
2021/12/22 05:19:29;;;;;;;22.02;11.20;;;-2.80;99.90;;;;;;5014110;28;20046;-84
2021/12/22 05:21:55;;;;;;;22.58;11.80;;;-2.80;99.90;;;;;;5014054;28;20044;-84
2021/12/22 05:24:21;;;;;;;23.58;11.45;;;-1.50;99.90;;;;;;5030697;28;20513;-84
2021/12/22 05:26:47;;;;;;;21.88;10.68;;;-2.90;99.90;;;;;;5013430;28;20533;-84
2021/12/22 05:29:13;;;;;;;24.52;12.35;;;-2.60;99.90;;;;;;5013041;28;20038;-84
2021/12/22 05:31:39;;;;;;;20.77;11.70;;;-2.60;99.90;;;;;;5013038;28;20116;-84
2021/12/22 05:34:05;;;;;;;21.95;11.88;;;-1.70;99.90;;;;;;5013202;28;20469;-84
2021/12/22 05:36:31;;;;;;;21.70;11.27;;;-1.80;99.90;;;;;;5005214;28;20063;-86
2021/12/22 05:38:57;;;;;;;22.58;11.85;;;-2.90;99.90;;;;;;5024431;28;20498;-85
2021/12/22 05:41:23;;;;;;;23.23;12.05;;;-2.90;99.90;;;;;;5004664;28;20033;-84
2021/12/22 05:43:49;;;;;;;23.35;11.73;;;-2.40;99.90;;;;;;4996051;28;20087;-84
2021/12/22 05:46:15;;;;;;;23.63;11.50;;;-3.00;99.90;;;;;;5028719;28;20045;-84
2021/12/22 05:48:40;;;;;;;21.13;11.85;;;-2.50;99.90;;;;;;5010637;28;20493;-84
2021/12/22 05:51:07;;;;;;;22.33;11.57;;;-2.70;99.90;;;;;;4996489;28;20116;-84
2021/12/22 05:53:33;;;;;;;21.65;11.43;;;-3.00;99.90;;;;;;5026702;28;20069;-84
2021/12/22 05:55:59;;;;;;;17.92;10.50;;;-3.00;99.90;;;;;;4995172;28;20069;-84
2021/12/22 05:58:25;;;;;;;19.45;10.82;;;-2.40;99.90;;;;;;5026173;28;20056;-83
2021/12/22 06:00:51;;;;;;;20.35;11.25;;;-1.90;99.90;;;;;;4995800;28;20494;-84
2021/12/22 06:03:17;;;;;;;21.08;11.52;;;-3.00;99.90;;;;;;5027072;28;20294;-85
2021/12/22 06:05:43;;;;;;;21.25;10.63;;;-2.70;99.90;;;;;;5009999;28;20540;-85
2021/12/22 06:08:09;;;;;;;24.45;11.38;;;-3.10;99.90;;;;;;5012833;28;20041;-85
2021/12/22 06:10:35;;;;;;;19.33;11.38;;;-1.20;99.90;;;;;;5028360;28;20072;-84
2021/12/22 06:13:03;;;;;;;21.85;11.75;;;-1.40;99.90;;;;;;5013260;28;20050;-84
2021/12/22 06:15:28;;;;;;;20.83;11.13;;;-3.30;99.90;;;;;;5012043;28;20037;-84
2021/12/22 06:17:57;;;;;;;23.38;11.45;;;-2.70;99.90;;;;;;4991410;28;20026;-85
2021/12/22 06:20:23;;;;;;;21.65;11.18;;;-2.90;99.90;;;;;;5011767;28;20034;-84
2021/12/22 06:22:50;;;;;;;25.17;12.15;;;-2.80;99.90;;;;;;4994445;28;20048;-85
2021/12/22 06:25:16;;;;;;;22.85;11.02;;;-1.10;99.90;;;;;;4992736;28;20124;-85
2021/12/22 06:27:42;;;;;;;21.63;11.75;;;-3.30;99.90;;;;;;5013336;28;20145;-84
2021/12/22 06:30:08;;;;;;;24.23;12.23;;;-3.10;99.90;;;;;;5012423;28;20051;-85
2021/12/22 06:32:34;;;;;;;21.40;11.98;;;-3.20;99.90;;;;;;5010039;28;20064;-85
2021/12/22 06:35:00;;;;;;;20.27;10.50;;;-2.40;99.90;;;;;;4990237;28;20264;-84
2021/12/22 06:37:25;;;;;;;23.20;11.73;;;-2.70;99.90;;;;;;5011351;28;20041;-84
2021/12/22 06:39:51;;;;;;;23.05;11.18;;;-2.10;99.90;;;;;;4996836;28;20049;-84
2021/12/22 06:42:17;;;;;;;21.30;11.40;;;-3.20;99.90;;;;;;4992342;28;20264;-85
2021/12/22 06:44:43;;;;;;;22.45;12.07;;;-1.50;99.90;;;;;;5027922;28;20041;-85
2021/12/22 06:47:10;;;;;;;20.90;12.05;;;-3.20;99.90;;;;;;4996236;28;20403;-84
2021/12/22 06:49:37;;;;;;;24.13;11.80;;;-3.40;99.90;;;;;;5012875;28;20045;-84
2021/12/22 06:52:04;;;;;;;23.80;11.60;;;-2.20;99.90;;;;;;5028688;28;20536;-84
2021/12/22 06:54:29;;;;;;;22.33;11.23;;;-3.20;99.90;;;;;;5028531;28;20053;-85
2021/12/22 06:56:56;;;;;;;25.10;12.82;;;-2.70;99.90;;;;;;4996031;28;20445;-84
2021/12/22 06:59:21;;;;;;;21.60;12.13;;;-3.20;99.90;;;;;;4992888;28;20045;-85
2021/12/22 07:01:48;;;;;;;21.00;11.40;;;-3.30;99.90;;;;;;5010282;28;20229;-85
2021/12/22 07:04:14;;;;;;;21.65;12.68;;;-2.50;99.90;;;;;;5025051;28;20058;-84
2021/12/22 07:06:40;;;;;;;22.75;11.75;;;-2.30;99.90;;;;;;5011757;28;20119;-84
2021/12/22 07:09:07;;;;;;;22.17;12.60;;;-3.20;99.90;;;;;;5028905;28;20076;-84
2021/12/22 07:11:35;;;;;;;23.63;12.52;;;-3.20;99.90;;;;;;4992688;28;20099;-84
2021/12/22 07:14:02;;;;;;;24.50;11.70;;;-3.10;99.90;;;;;;5011961;28;20034;-84
2021/12/22 07:16:28;;;;;;;23.60;12.38;;;-2.40;99.90;;;;;;4994911;28;20049;-84
2021/12/22 07:18:54;;;;;;;23.83;12.13;;;-3.20;99.90;;;;;;5028213;28;20037;-83
2021/12/22 07:21:19;;;;;;;25.42;11.98;;;-1.80;99.90;;;;;;5011752;28;20037;-84
2021/12/22 07:23:45;;;;;;;23.67;11.85;;;-3.20;99.90;;;;;;5011882;28;20041;-82
2021/12/22 07:26:13;;;;;;;22.48;12.60;;;-2.60;99.90;;;;;;4994603;28;20037;-82
2021/12/22 07:28:41;;;;;;;25.98;13.23;;;-3.20;99.90;;;;;;5011818;28;20037;-82
2021/12/22 07:31:08;;;;;;;26.02;12.18;;;-3.20;99.90;;;;;;5011514;28;20091;-82
2021/12/22 07:33:33;;;;;;;25.10;12.55;;;-3.10;99.90;;;;;;5011330;28;20050;-83
2021/12/22 07:36:02;;;;;;;23.17;12.13;;;-2.90;99.90;;;;;;4994319;28;20051;-82
2021/12/22 07:38:39;;;;;;;23.77;12.70;;;-1.50;99.90;;;;;;4995203;28;20050;-82
2021/12/22 07:41:07;;;;;;;26.83;12.75;;;-3.20;99.90;;;;;;5007950;28;20038;-82
2021/12/22 07:43:34;;;;;;;24.50;12.02;;;-1.40;99.90;;;;;;5008085;28;20045;-82
2021/12/22 07:46:01;;;;;;;26.30;13.02;;;-3.10;99.90;;;;;;5010837;28;20189;-83
2021/12/22 07:48:27;;;;;;;23.90;11.93;;;-3.10;99.90;;;;;;5009457;28;20576;-83
2021/12/22 07:50:53;;;;;;;26.83;13.82;;;-3.20;99.90;;;;;;5011289;28;20116;-83
2021/12/22 07:53:20;;;;;;;22.90;12.52;;;-3.10;99.90;;;;;;5010539;28;20041;-82
2021/12/22 07:55:46;;;;;;;23.48;12.45;;;-3.10;99.90;;;;;;5010955;28;20038;-87
2021/12/22 07:58:11;;;;;;;24.52;12.15;;;-3.00;99.90;;;;;;4993840;28;20124;-84
2021/12/22 08:00:37;;;;;;;24.33;11.45;;;-3.00;99.90;;;;;;5005017;28;20549;-83
2021/12/22 08:03:03;;;;;;;24.38;12.88;;;-3.00;99.90;;;;;;5009165;28;20049;-82
2021/12/22 08:05:29;;;;;;;24.10;12.63;;;-3.00;99.90;;;;;;5026982;28;20103;-85
2021/12/22 08:07:56;;;;;;;23.17;11.75;;;-2.50;99.90;;;;;;5006087;28;20387;-85
2021/12/22 08:10:22;;;;;;;22.50;11.98;;;-2.90;99.90;;;;;;5026000;28;20049;-83
2021/12/22 08:12:48;;;;;;;26.80;12.38;;;-2.80;99.90;;;;;;5011466;28;20068;-83
2021/12/22 08:15:15;;;;;;;24.50;12.57;;;-2.90;99.90;;;;;;5010956;28;20072;-83
2021/12/22 08:17:41;;;;;;;23.45;12.05;;;-2.80;99.90;;;;;;4995988;28;20049;-84
2021/12/22 08:20:07;;;;;;;23.83;12.35;;;-1.70;99.90;;;;;;4994869;28;20062;-84
2021/12/22 08:22:33;;;;;;;23.90;12.82;;;-2.80;99.90;;;;;;5009331;28;20137;-84
2021/12/22 08:24:59;;;;;;;23.05;11.98;;;-2.00;99.90;;;;;;5015442;28;20569;-84
2021/12/22 08:27:25;;;;;;;21.33;11.85;;;-1.40;99.90;;;;;;5005306;28;20045;-83
2021/12/22 08:29:51;;;;;;;22.60;12.07;;;-0.70;99.90;;;;;;4997809;28;20418;-83
2021/12/22 08:32:17;;;;;;;24.80;12.70;;;-2.20;99.90;;;;;;5008478;28;20037;-84
2021/12/22 08:34:46;;;;;;;23.80;12.50;;;-2.60;99.90;;;;;;5015819;28;20037;-83
2021/12/22 08:39:58;;;;;;;22.20;12.13;;;-1.70;99.90;;;;;;5032313;28;20038;-83
2021/12/22 08:42:24;;;;;;;23.30;12.55;;;-2.50;99.90;;;;;;5027483;28;20530;-83
2021/12/22 08:44:51;;;;;;;21.70;11.77;;;-2.30;99.90;;;;;;5031635;28;20037;-83
2021/12/22 08:47:17;;;;;;;22.88;11.70;;;-0.30;99.90;;;;;;5015732;28;20124;-83
2021/12/22 08:49:44;;;;;;;25.80;12.32;;;-2.30;99.90;;;;;;5001805;28;20033;-84
2021/12/22 08:52:10;;;;;;;22.88;11.70;;;-2.20;99.90;;;;;;5031365;28;20046;-84
2021/12/22 08:54:35;;;;;;;22.13;11.80;;;-2.20;99.90;;;;;;5015252;28;20517;-84
2021/12/22 08:57:01;;;;;;;23.98;12.23;;;-2.20;99.90;;;;;;5024856;28;20034;-83
2021/12/22 08:59:27;;;;;;;23.00;12.02;;;-2.10;99.90;;;;;;5010091;28;20187;-83
2021/12/22 09:01:53;;;;;;;22.85;12.60;;;-2.10;99.90;;;;;;5008967;28;20120;-83
2021/12/22 09:04:20;;;;;;;21.13;11.95;;;-2.00;99.90;;;;;;4980726;28;20046;-84
2021/12/22 09:06:46;;;;;;;22.27;12.40;;;-2.00;99.90;;;;;;4999064;28;20076;-85
2021/12/22 09:09:13;;;;;;;25.85;12.68;;;-1.90;99.90;;;;;;4981323;28;20074;-86
2021/12/22 09:11:40;;;;;;;24.05;12.48;;;-1.90;99.90;;;;;;4998579;28;20049;-83
2021/12/22 09:14:06;;;;;;;23.75;12.70;;;-1.80;99.90;;;;;;4989034;28;20075;-82
2021/12/22 09:16:36;;;;;;;24.38;12.95;;;0.00;99.90;;;;;;4982428;28;20065;-83
2021/12/22 09:19:04;;;;;;;24.90;13.10;;;-1.80;99.90;;;;;;4987877;28;20041;-84
2021/12/22 09:21:30;;;;;;;26.20;12.65;;;-1.60;99.90;;;;;;5013809;28;20382;-84
2021/12/22 09:23:56;;;;;;;27.73;12.80;;;-1.70;99.90;;;;;;4994960;28;20498;-83
2021/12/22 09:26:22;;;;;;;23.25;12.35;;;-0.90;99.90;;;;;;4990687;28;20149;-85
2021/12/22 09:28:48;;;;;;;23.75;12.38;;;;;;;;;;4981376;28;20040;-83
2021/12/22 09:31:14;;;;;;;23.98;12.95;;;-1.50;99.90;;;;;;4997418;28;20048;-83
2021/12/22 09:33:40;;;;;;;25.30;12.93;;;0.50;99.90;;;;;;4997009;28;20080;-82
2021/12/22 09:36:09;;;;;;;23.95;11.98;;;-1.40;99.90;;;;;;5012492;28;20070;-83
2021/12/22 09:38:35;;;;;;;24.67;12.25;;;-1.40;99.90;;;;;;5006584;28;20052;-83
2021/12/22 09:41:02;;;;;;;24.90;12.13;;;-1.40;99.90;;;;;;4982268;28;20490;-83
2021/12/22 09:43:28;;;;;;;24.65;12.77;;;-1.30;99.90;;;;;;4975737;28;20508;-83
2021/12/22 09:46:00;;;;;;;23.92;12.23;;;-1.30;99.90;;;;;;5016968;28;20049;-84
2021/12/22 09:48:35;;;;;;;25.63;12.35;;;-1.20;99.90;;;;;;4997201;28;20041;-84
2021/12/22 09:53:29;;;;;;;22.67;11.52;;;-1.10;99.90;;;;;;5002038;28;20203;-84
2021/12/22 09:55:58;;;;;;;24.65;13.15;;;-1.10;99.90;;;;;;5014188;28;20405;-84
2021/12/22 09:58:24;;;;;;;21.70;10.65;;;0.50;99.90;;;;;;4982982;28;20120;-84
2021/12/22 10:00:50;;;;;;;23.38;11.18;;;-0.50;99.90;;;;;;4986819;28;20040;-84
2021/12/22 10:03:17;;;;;;;21.92;11.45;;;-0.90;99.90;;;;;;4988775;28;20092;-85
2021/12/22 10:05:46;;;;;;;20.83;11.10;;;-0.90;99.90;;;;;;5013769;28;20084;-83
2021/12/22 10:08:18;;;;;;;24.98;11.52;;;0.10;99.90;;;;;;5029514;28;20090;-86
2021/12/22 10:10:51;;;;;;;25.80;11.35;;;-0.80;99.90;;;;;;5013259;28;20044;-83
2021/12/22 10:13:19;;;;;;;22.38;10.82;;;-0.80;99.90;;;;;;5025064;28;20057;-84
2021/12/22 10:15:46;;;;;;;20.48;10.85;;;-0.80;99.90;;;;;;5010961;28;20153;-84
2021/12/22 10:18:20;;;;;;;23.15;11.65;;;-0.70;99.90;;;;;;5011869;28;20052;-84
2021/12/22 10:20:48;;;;;;;23.50;12.05;;;-0.70;99.90;;;;;;5013057;28;20073;-83
2021/12/22 10:23:18;;;;;;;24.25;11.23;;;-0.70;99.90;;;;;;5011775;28;20077;-85
2021/12/22 10:25:53;;;;;;;22.23;10.93;;;0.00;99.90;;;;;;5011004;28;20072;-83
2021/12/22 10:28:20;;;;;;;22.70;11.32;;;-0.60;99.90;;;;;;5012453;28;20363;-85
2021/12/22 10:30:48;;;;;;;22.63;10.95;;;-0.50;99.90;;;;;;5006125;28;20522;-83
2021/12/22 10:33:31;;;;;;;21.10;10.75;;;0.00;99.90;;;;;;5024896;28;20096;-83
2021/12/22 10:36:00;;;;;;;22.58;11.32;;;-0.50;99.90;;;;;;5022412;28;20120;-85
2021/12/22 10:38:28;;;;;;;22.00;11.45;;;-0.30;99.90;;;;;;5012155;28;20040;-84
2021/12/22 10:41:09;;;;;;;20.90;11.32;;;-0.40;99.90;;;;;;5012386;28;20033;-84
2021/12/22 10:43:44;;;;;;;23.67;11.93;;;-0.30;99.90;;;;;;5027057;28;20098;-86
2021/12/22 10:46:15;;;;;;;22.23;11.15;;;-0.20;99.90;;;;;;5009400;28;20042;-84
2021/12/22 10:51:36;;;;;;;21.00;11.35;;;0.30;99.90;;;;;;5007056;28;20043;-85
2021/12/22 10:54:10;;;;;;;19.67;10.65;;;0.00;99.90;;;;;;5009517;28;20033;-85
2021/12/22 10:56:39;;;;;;;19.17;10.43;;;0.00;99.90;;;;;;5022069;28;20458;-86
2021/12/22 10:59:08;;;;;;;19.50;10.38;;;0.00;99.90;;;;;;5005519;28;20040;-85
2021/12/22 11:01:54;;;;;;;20.83;10.57;;;0.00;99.90;;;;;;5006544;28;20141;-84
2021/12/22 11:04:32;;;;;;;18.58;10.40;;;0.00;99.90;;;;;;4989567;28;20160;-86
2021/12/22 11:07:12;;;;;;;21.10;10.63;;;0.10;99.90;;;;;;4978519;28;20045;-86
2021/12/22 11:09:39;;;;;;;21.95;10.85;;;0.10;99.90;;;;;;5027259;28;20103;-85
2021/12/22 11:12:06;;;;;;;18.38;10.15;;;0.10;99.90;;;;;;4994441;28;20076;-86
2021/12/22 11:14:37;;;;;;;18.85;10.63;;;0.10;99.90;;;;;;5010445;28;20041;-85
2021/12/22 11:17:04;;;;;;;20.52;10.35;;;0.10;99.90;;;;;;5026557;28;20056;-87
2021/12/22 11:19:34;;;;;;;19.67;9.90;;;0.10;99.90;;;;;;5041031;28;20041;-86
2021/12/22 11:22:17;;;;;;;18.92;10.43;;;0.20;99.90;;;;;;5027396;28;20041;-86
2021/12/22 11:24:46;;;;;;;23.02;10.73;;;0.10;99.90;;;;;;5010997;28;20033;-86
2021/12/22 11:27:15;;;;;;;19.48;10.25;;;0.10;99.90;;;;;;5012957;28;20099;-86
2021/12/22 11:29:45;;;;;;;19.70;10.13;;;0.20;99.90;;;;;;5006152;28;20052;-86
2021/12/22 11:32:13;;;;;;;23.05;10.00;;;0.20;99.90;;;;;;5018092;28;20324;-86
2021/12/22 11:34:43;;;;;;;18.23;10.38;;;0.20;99.90;;;;;;4990735;28;20111;-86
2021/12/22 11:37:13;;;;;;;17.80;10.00;;;1.40;99.90;;;;;;5027898;28;20045;-87
2021/12/22 11:39:41;;;;;;;18.92;10.73;;;1.70;99.90;;;;;;5012357;28;20234;-87
2021/12/22 11:42:09;;;;;;;18.88;10.32;;;0.30;99.90;;;;;;5012404;28;20188;-87
2021/12/22 11:44:38;;;;;;;22.95;11.23;;;0.40;99.90;;;;;;5025764;28;20103;-86
2021/12/22 11:47:08;;;;;;;20.02;9.75;;;0.50;99.90;;;;;;5010048;28;20102;-87
2021/12/22 11:49:34;;;;;;;18.92;10.38;;;0.50;99.90;;;;;;5011668;28;20513;-87
2021/12/22 11:52:29;;;;;;;19.23;9.68;;;0.60;99.90;;;;;;5019968;28;20069;-87
2021/12/22 11:55:17;;;;;;;17.73;8.75;;;0.60;99.90;;;;;;5009281;28;20048;-86
2021/12/22 11:57:47;;;;;;;18.10;9.10;;;0.70;99.90;;;;;;5028052;28;20049;-87
2021/12/22 12:00:25;;;;;;;18.33;9.38;;;0.70;99.90;;;;;;5010508;28;20263;-85
2021/12/22 12:02:51;;;;;;;17.65;9.60;;;1.20;99.90;;;;;;5006657;28;20069;-85
2021/12/22 12:05:23;;;;;;;19.75;9.68;;;0.60;99.90;;;;;;4978690;28;20050;-87
2021/12/22 12:08:02;;;;;;;17.50;9.45;;;0.60;99.90;;;;;;5010663;28;20075;-85
2021/12/22 12:10:43;;;;;;;18.52;9.38;;;0.70;99.90;;;;;;5006792;28;20037;-86
2021/12/22 12:13:21;;;;;;;17.73;9.43;;;0.90;99.90;;;;;;5009527;28;20059;-87
2021/12/22 12:21:49;;;;;;;17.92;8.98;;;0.60;99.90;;;;;;5026895;28;20419;-85
2021/12/22 12:24:30;;;;;;;16.80;8.70;;;0.60;99.90;;;;;;5027061;28;20509;-86
2021/12/22 12:27:00;;;;;;;17.60;9.23;;;1.90;99.90;;;;;;5011695;28;20042;-86
2021/12/22 12:29:57;;;;;;;17.83;9.02;;;0.70;99.90;;;;;;5010210;28;20033;-85
2021/12/22 12:32:42;;;;;;;17.60;8.95;;;0.70;99.90;;;;;;5021512;28;20046;-84
2021/12/22 12:35:23;;;;;;;18.73;9.85;;;0.60;99.90;;;;;;5010536;28;20132;-86
2021/12/22 12:38:16;;;;;;;15.55;9.10;;;0.80;99.90;;;;;;5007116;28;20084;-86
2021/12/22 12:46:38;;;;;;;19.38;9.05;;;0.70;99.90;;;;;;5027547;28;20046;-85
2021/12/22 12:49:03;;;;;;;20.15;9.30;;;0.80;99.90;;;;;;5028009;28;20116;-85
2021/12/22 12:51:34;;;;;;;18.48;10.15;;;0.80;99.90;;;;;;5028774;28;20128;-86
2021/12/22 12:54:07;;;;;;;18.58;9.23;;;0.80;99.90;;;;;;5027130;28;20041;-85
2021/12/22 12:56:39;;;;;;;20.92;9.32;;;0.80;99.90;;;;;;5024201;28;20034;-84
2021/12/22 12:59:07;;;;;;;19.48;8.95;;;0.70;99.90;;;;;;5009989;28;20037;-85
2021/12/22 13:04:50;;;;;;;18.85;9.27;;;0.80;99.90;;;;;;5021726;28;20068;-86
2021/12/22 13:07:19;;;;;;;17.00;9.27;;;0.80;99.90;;;;;;5021625;28;20049;-86
2021/12/22 13:10:13;;;;;;;18.15;9.30;;;1.60;99.90;;;;;;5012564;28;20052;-85